createdAt,value
2023-09-11T00:02:26.017Z,5.818791946308725
2023-09-11T00:06:04.030Z,5.355704697986577
2023-09-11T00:12:14.462Z,4.939597315436242
2023-09-11T00:15:33.948Z,4.268456375838926
2023-09-11T00:18:53.989Z,5.382550335570469
2023-09-11T00:22:13.976Z,4.771812080536913
2023-09-11T00:26:49.103Z,5.449664429530201
2023-09-11T00:30:08.956Z,7.046979865771812
2023-09-11T00:33:29.144Z,4.577181208053691
2023-09-11T00:36:49.126Z,5.073825503355705
2023-09-11T00:40:08.787Z,4.422818791946309
2023-09-11T00:47:53.131Z,6.503355704697986
2023-09-11T00:51:12.771Z,4.4630872483221475
2023-09-11T00:54:31.525Z,6.590604026845638
2023-09-11T00:57:50.609Z,5.617449664429531
2023-09-11T01:01:10.177Z,4.067114093959732
2023-09-11T01:04:30.255Z,5.604026845637584
2023-09-11T01:10:12.875Z,5.503355704697986
2023-09-11T01:13:32.507Z,4.617449664429531
2023-09-11T01:16:52.702Z,5.973154362416107
2023-09-11T01:20:13.010Z,4.791946308724833
2023-09-11T01:23:32.639Z,7.194630872483222
2023-09-11T01:26:52.516Z,5.610738255033557
2023-09-11T01:30:11.730Z,4.879194630872483
2023-09-11T01:37:52.966Z,5.885906040268456
2023-09-11T01:43:35.208Z,5.100671140939597
2023-09-11T01:46:54.300Z,4.818791946308725
2023-09-11T01:50:14.161Z,3.865771812080537
2023-09-11T01:53:33.576Z,3.879194630872483
2023-09-11T01:56:54.036Z,4.429530201342282
2023-09-11T02:00:14.252Z,3.261744966442953
2023-09-11T02:03:34.278Z,3.738255033557047
2023-09-11T02:06:54.219Z,2.6241610738255035
2023-09-11T02:11:50.617Z,3.8926174496644297
2023-09-11T02:15:10.113Z,3.785234899328859
2023-09-11T02:18:29.951Z,4.134228187919463
2023-09-11T02:21:49.272Z,4.671140939597316
2023-09-11T02:25:08.949Z,3.442953020134228
2023-09-11T02:28:28.953Z,3.4563758389261743
2023-09-11T02:31:51.799Z,2.7181208053691277
2023-09-11T02:35:11.655Z,3.3758389261744965
2023-09-11T02:38:31.556Z,3.2751677852348995
2023-09-11T02:47:57.975Z,3.1073825503355703
2023-09-11T02:51:17.932Z,2.389261744966443
2023-09-11T02:56:31.601Z,1.8120805369127517
2023-09-11T02:59:51.568Z,4.926174496644295
2023-09-11T03:03:11.577Z,3.0604026845637584
2023-09-11T03:06:31.639Z,3.6912751677852347
2023-09-11T03:09:51.526Z,3.315436241610738
2023-09-11T03:13:11.444Z,4.134228187919463
2023-09-11T03:16:31.153Z,3.3221476510067114
2023-09-11T03:19:50.653Z,2.2885906040268456
2023-09-11T03:26:55.991Z,3.4563758389261743
2023-09-11T03:30:15.596Z,2.4093959731543624
2023-09-11T03:36:15.511Z,3.7315436241610738
2023-09-11T03:39:52.820Z,3.6711409395973154
2023-09-11T03:43:12.087Z,4.322147651006712
2023-09-11T03:46:32.116Z,4.1610738255033555
2023-09-11T03:53:49.761Z,3.597315436241611
2023-09-11T03:57:09.207Z,2.859060402684564
2023-09-11T04:00:28.683Z,3.7583892617449663
2023-09-11T04:03:48.084Z,3.87248322147651
2023-09-11T04:07:07.654Z,3.3624161073825505
2023-09-11T04:11:50.260Z,3.2751677852348995
2023-09-11T04:16:35.289Z,3.0604026845637584
2023-09-11T04:21:42.331Z,2.8993288590604025
2023-09-11T04:25:02.168Z,2.530201342281879
2023-09-11T04:28:41.280Z,3.684563758389262
2023-09-11T04:32:01.341Z,2.879194630872483
2023-09-11T04:35:20.979Z,2.6375838926174495
2023-09-11T04:38:40.991Z,3.0805369127516777
2023-09-11T04:42:00.805Z,3.248322147651007
2023-09-11T04:45:20.753Z,2.6711409395973154
2023-09-11T04:48:39.937Z,2.9865771812080535
2023-09-11T04:51:59.726Z,3.469798657718121
2023-09-11T04:55:19.510Z,2.120805369127517
2023-09-11T04:59:26.441Z,2.959731543624161
2023-09-11T05:02:46.495Z,2.4832214765100673
2023-09-11T05:06:06.286Z,4.25503355704698
2023-09-11T05:09:25.968Z,3.6711409395973154
2023-09-11T05:12:45.327Z,3.6442953020134228
2023-09-11T05:16:05.655Z,2.402684563758389
2023-09-11T05:19:25.215Z,2.8456375838926173
2023-09-11T05:22:50.100Z,2.563758389261745
2023-09-11T05:26:09.969Z,4.1610738255033555
2023-09-11T05:29:29.811Z,3.228187919463087
2023-09-11T05:32:49.515Z,2.389261744966443
2023-09-11T05:36:09.412Z,3.6442953020134228
2023-09-11T05:39:29.003Z,3.38255033557047
2023-09-11T05:42:50.056Z,3.422818791946309
2023-09-11T05:46:09.112Z,3.3288590604026846
2023-09-11T05:49:28.956Z,2.5704697986577183
2023-09-11T05:52:49.314Z,3.335570469798658
2023-09-11T05:56:08.950Z,2.6040268456375837
2023-09-11T05:59:28.038Z,3.3691275167785233
2023-09-11T06:02:48.130Z,1.6241610738255035
2023-09-11T06:11:43.646Z,2.3557046979865772
2023-09-11T06:15:03.842Z,2.12751677852349
2023-09-11T06:18:23.489Z,2.751677852348993
2023-09-11T06:21:42.924Z,3.610738255033557
2023-09-11T06:29:44.182Z,3.2684563758389262
2023-09-11T06:33:04.518Z,2.6308724832214767
2023-09-11T06:36:23.815Z,3.2348993288590604
2023-09-11T06:39:43.602Z,2.2885906040268456
2023-09-11T06:43:03.810Z,2.8523489932885906
2023-09-11T06:46:23.906Z,3.174496644295302
2023-09-11T06:49:43.768Z,4.590604026845638
2023-09-11T06:53:03.895Z,3.2684563758389262
2023-09-11T06:56:23.740Z,2.7248322147651005
2023-09-11T06:59:43.454Z,2.8187919463087248
2023-09-11T07:04:01.266Z,2.8523489932885906
2023-09-11T07:07:20.835Z,2.791946308724832
2023-09-11T07:10:41.942Z,2.5838926174496644
2023-09-11T07:16:42.704Z,3.825503355704698
2023-09-11T07:20:02.382Z,4.181208053691275
2023-09-11T07:23:22.472Z,3.0201342281879193
2023-09-11T07:26:42.011Z,3.8523489932885906
2023-09-11T07:30:01.060Z,3.0738255033557045
2023-09-11T07:34:24.708Z,3.785234899328859
2023-09-11T07:37:45.149Z,2.0738255033557045
2023-09-11T07:41:05.072Z,2.1879194630872485
2023-09-11T07:44:24.880Z,1.8993288590604027
2023-09-11T07:47:44.374Z,2.422818791946309
2023-09-11T07:51:03.945Z,1.9865771812080537
2023-09-11T07:54:23.387Z,3.12751677852349
2023-09-11T07:57:42.872Z,2.0671140939597317
2023-09-11T08:01:02.656Z,3.7181208053691277
2023-09-11T08:07:48.137Z,3.1543624161073827
2023-09-11T08:11:08.032Z,3.2818791946308723
2023-09-11T08:14:28.029Z,2.87248322147651
2023-09-11T08:17:48.313Z,1.9261744966442953
2023-09-11T08:21:08.034Z,2.7114093959731544
2023-09-11T08:24:27.669Z,2.859060402684564
2023-09-11T08:27:47.644Z,2.134228187919463
2023-09-11T08:31:06.787Z,2.8322147651006713
2023-09-11T08:34:26.409Z,2.2416107382550337
2023-09-11T08:37:46.630Z,3.1812080536912752
2023-09-11T08:42:38.341Z,2.6241610738255035
2023-09-11T08:45:58.571Z,2.51006711409396
2023-09-11T08:49:17.384Z,2.651006711409396
2023-09-11T08:52:36.670Z,2.8456375838926173
2023-09-11T08:55:56.941Z,2.9932885906040267
2023-09-11T08:59:17.600Z,2.8926174496644297
2023-09-11T09:03:59.209Z,3.7114093959731544
2023-09-11T09:07:18.744Z,3.2818791946308723
2023-09-11T09:10:38.201Z,1.8993288590604027
2023-09-11T09:13:58.094Z,2.4563758389261743
2023-09-11T09:17:17.970Z,2.174496644295302
2023-09-11T09:22:54.955Z,3.3624161073825505
2023-09-11T09:26:15.856Z,2.530201342281879
2023-09-11T09:29:50.817Z,1.1140939597315436
2023-09-11T09:33:10.696Z,1.9463087248322148
2023-09-11T09:36:30.784Z,2.2818791946308723
2023-09-11T09:39:50.773Z,3.3691275167785233
2023-09-11T09:43:10.347Z,2.9932885906040267
2023-09-11T09:49:01.695Z,2.7315436241610738
2023-09-11T09:52:21.255Z,3.8053691275167787
2023-09-11T09:59:51.155Z,2.771812080536913
2023-09-11T10:05:01.637Z,1.3557046979865772
2023-09-11T10:08:21.263Z,2.4161073825503356
2023-09-11T10:11:40.746Z,3.5503355704697985
2023-09-11T10:15:00.747Z,2.053691275167785
2023-09-11T10:18:19.960Z,3.1879194630872485
2023-09-11T10:21:39.974Z,2.033557046979866
2023-09-11T10:26:26.791Z,5.731543624161074
2023-09-11T10:29:46.935Z,2.946308724832215
2023-09-11T10:33:07.029Z,1.516778523489933
2023-09-11T10:38:12.124Z,2.4161073825503356
2023-09-11T10:42:23.322Z,3.5704697986577183
2023-09-11T10:45:57.743Z,3.046979865771812
2023-09-11T10:49:17.098Z,3.0134228187919465
2023-09-11T10:53:12.527Z,2.9865771812080535
2023-09-11T10:56:31.796Z,4.0134228187919465
2023-09-11T10:59:51.280Z,2.651006711409396
2023-09-11T11:03:10.895Z,4.25503355704698
2023-09-11T11:06:30.842Z,3.348993288590604
2023-09-11T11:09:51.094Z,4.771812080536913
2023-09-11T11:13:11.005Z,4.751677852348993
2023-09-11T11:16:30.718Z,3.664429530201342
2023-09-11T11:21:30.717Z,4.489932885906041
2023-09-11T11:24:49.581Z,3.8859060402684564
2023-09-11T11:28:09.351Z,4.25503355704698
2023-09-11T11:32:49.734Z,3.563758389261745
2023-09-11T11:36:09.962Z,4.778523489932886
2023-09-11T11:39:29.400Z,2.738255033557047
2023-09-11T11:42:48.991Z,3.3221476510067114
2023-09-11T11:46:08.451Z,3.6040268456375837
2023-09-11T11:49:28.041Z,2.0134228187919465
2023-09-11T11:52:47.993Z,3.442953020134228
2023-09-11T11:57:39.754Z,2.2818791946308723
2023-09-11T12:00:59.535Z,2.9060402684563758
2023-09-11T12:04:32.129Z,3.5033557046979866
2023-09-11T12:07:58.451Z,4.382550335570469
2023-09-11T12:11:21.218Z,5.510067114093959
2023-09-11T12:14:40.617Z,3.161073825503356
2023-09-11T12:18:00.266Z,4.268456375838926
2023-09-11T12:22:06.729Z,5.046979865771812
2023-09-11T12:25:27.971Z,3.597315436241611
2023-09-11T12:28:48.017Z,4.651006711409396
2023-09-11T12:32:08.026Z,2.295302013422819
2023-09-11T12:35:27.906Z,4.087248322147651
2023-09-11T12:38:46.876Z,3.3624161073825505
2023-09-11T12:42:06.475Z,4.147651006711409
2023-09-11T12:45:25.200Z,2.140939597315436
2023-09-11T12:48:45.768Z,2.1677852348993287
2023-09-11T12:52:05.591Z,2.9060402684563758
2023-09-11T12:55:25.261Z,4.5369127516778525
2023-09-11T12:58:44.590Z,2.9194630872483223
2023-09-11T13:02:04.085Z,2.778523489932886
2023-09-11T13:06:48.479Z,4.053691275167785
2023-09-11T13:13:05.405Z,1.9395973154362416
2023-09-11T13:16:24.313Z,3.0201342281879193
2023-09-11T13:19:43.852Z,2.859060402684564
2023-09-11T13:23:03.324Z,2.3557046979865772
2023-09-11T13:26:22.795Z,2.3087248322147653
2023-09-11T13:29:42.535Z,2.966442953020134
2023-09-11T13:33:02.644Z,3.1140939597315436
2023-09-11T13:36:21.437Z,4.563758389261745
2023-09-11T13:39:40.911Z,1.9597315436241611
2023-09-11T13:44:29.664Z,3.51006711409396
2023-09-11T13:47:49.434Z,4.046979865771812
2023-09-11T13:51:09.278Z,2.953020134228188
2023-09-11T13:54:28.291Z,3.966442953020134
2023-09-11T14:00:33.153Z,2.5369127516778525
2023-09-11T14:03:53.128Z,1.7852348993288591
2023-09-11T14:07:12.407Z,1.8523489932885906
2023-09-11T14:12:21.302Z,3.2885906040268456
2023-09-11T14:15:40.809Z,1.4966442953020134
2023-09-11T14:21:19.996Z,2.4630872483221475
2023-09-11T14:24:39.141Z,2.953020134228188
2023-09-11T14:27:59.213Z,2.912751677852349
2023-09-11T14:31:18.706Z,2.966442953020134
2023-09-11T14:34:38.896Z,1.5302013422818792
2023-09-11T14:37:57.950Z,2.87248322147651
2023-09-11T14:41:17.545Z,3.523489932885906
2023-09-11T14:44:37.306Z,3.040268456375839
2023-09-11T14:47:57.480Z,3.295302013422819
2023-09-11T14:51:16.900Z,2.3624161073825505
2023-09-11T14:54:51.227Z,1.476510067114094
2023-09-11T14:58:13.544Z,1.9328859060402686
2023-09-11T15:01:33.413Z,2.1879194630872485
2023-09-11T15:04:53.078Z,3.2684563758389262
2023-09-11T15:08:13.290Z,3.684563758389262
2023-09-11T15:11:32.394Z,3.61744966442953
2023-09-11T15:14:52.180Z,1.8523489932885906
2023-09-11T15:18:12.399Z,4.3624161073825505
2023-09-11T15:21:32.319Z,3.751677852348993
2023-09-11T15:24:52.419Z,3.0
2023-09-11T15:28:12.098Z,2.4966442953020134
2023-09-11T15:34:26.769Z,3.120805369127517
2023-09-11T15:37:46.491Z,1.7651006711409396
2023-09-11T15:41:05.824Z,2.5369127516778525
2023-09-11T15:44:25.730Z,2.174496644295302
2023-09-11T15:47:45.497Z,3.2348993288590604
2023-09-11T15:51:05.379Z,2.61744966442953
2023-09-11T15:54:25.004Z,2.9798657718120807
2023-09-11T15:58:32.551Z,3.6241610738255035
2023-09-11T16:01:52.133Z,1.9060402684563758
2023-09-11T16:07:03.117Z,4.879194630872483
2023-09-11T16:10:22.692Z,2.315436241610738
2023-09-11T16:13:41.473Z,2.228187919463087
2023-09-11T16:17:01.532Z,2.597315436241611
2023-09-11T16:20:20.909Z,2.8523489932885906
2023-09-11T16:23:40.284Z,4.348993288590604
2023-09-11T16:26:59.178Z,5.7114093959731544
2023-09-11T16:30:18.744Z,5.409395973154362
2023-09-11T16:43:03.055Z,3.697986577181208
2023-09-11T16:46:22.825Z,2.8523489932885906
2023-09-11T16:49:42.184Z,2.2751677852348995
2023-09-11T16:53:02.278Z,1.7986577181208054
2023-09-11T16:56:21.459Z,2.523489932885906
2023-09-11T16:59:41.336Z,3.7181208053691277
2023-09-11T17:03:01.697Z,2.6040268456375837
2023-09-11T17:06:21.371Z,2.1476510067114094
2023-09-11T17:09:41.292Z,3.8187919463087248
2023-09-11T17:13:01.615Z,2.5436241610738257
2023-09-11T17:16:21.107Z,2.751677852348993
2023-09-11T17:19:40.779Z,2.208053691275168
2023-09-11T17:23:00.669Z,2.0604026845637584
2023-09-11T17:26:28.805Z,2.402684563758389
2023-09-11T17:29:48.964Z,1.8791946308724832
2023-09-11T17:33:10.604Z,1.8791946308724832
2023-09-11T17:36:32.306Z,2.8456375838926173
2023-09-11T17:39:51.924Z,1.9060402684563758
2023-09-11T17:43:11.200Z,3.053691275167785
2023-09-11T17:46:30.987Z,2.38255033557047
2023-09-11T17:49:51.050Z,2.7114093959731544
2023-09-11T17:53:10.328Z,2.7114093959731544
2023-09-11T17:56:29.510Z,2.1140939597315436
2023-09-11T17:59:48.720Z,2.879194630872483
2023-09-11T18:03:08.648Z,2.7986577181208054
2023-09-11T18:06:28.387Z,1.9060402684563758
2023-09-11T18:12:04.217Z,2.0671140939597317
2023-09-11T18:15:24.223Z,2.3422818791946307
2023-09-11T18:21:20.723Z,2.161073825503356
2023-09-11T18:24:40.230Z,1.74496644295302
2023-09-11T18:28:00.454Z,3.4630872483221475
2023-09-11T18:33:54.260Z,1.7583892617449663
2023-09-11T18:37:13.782Z,1.9463087248322148
2023-09-11T18:40:33.364Z,2.751677852348993
2023-09-11T18:43:53.365Z,2.140939597315436
2023-09-11T18:47:13.124Z,2.2013422818791946
2023-09-11T18:50:32.189Z,2.2416107382550337
2023-09-11T18:53:52.296Z,2.7181208053691277
2023-09-11T18:57:11.073Z,2.946308724832215
2023-09-11T19:00:30.861Z,1.7986577181208054
2023-09-11T19:06:55.226Z,2.51006711409396
2023-09-11T19:10:14.391Z,3.1543624161073827
2023-09-11T19:13:34.085Z,3.9932885906040267
2023-09-11T19:16:59.381Z,4.0
2023-09-11T19:20:18.858Z,3.738255033557047
2023-09-11T19:24:00.913Z,4.295302013422819
2023-09-11T19:29:00.072Z,2.402684563758389
2023-09-11T19:38:46.040Z,4.543624161073826
2023-09-11T19:51:59.296Z,3.389261744966443
2023-09-11T19:57:08.773Z,4.322147651006712
2023-09-11T20:03:07.310Z,3.5838926174496644
2023-09-11T20:06:27.591Z,3.651006711409396
2023-09-11T20:09:47.694Z,4.496644295302014
2023-09-11T20:13:07.219Z,2.7181208053691277
2023-09-11T20:16:26.016Z,3.6912751677852347
2023-09-11T20:19:46.014Z,3.4295302013422817
2023-09-11T20:23:06.140Z,2.4563758389261743
2023-09-11T20:26:25.945Z,2.053691275167785
2023-09-11T20:31:46.210Z,2.2416107382550337
2023-09-11T20:35:47.220Z,2.6912751677852347
2023-09-11T20:39:07.503Z,2.5704697986577183
2023-09-11T20:42:27.695Z,2.87248322147651
2023-09-11T20:45:47.323Z,2.738255033557047
2023-09-11T20:49:07.227Z,4.0134228187919465
2023-09-11T20:52:26.605Z,2.3288590604026846
2023-09-11T20:55:45.980Z,2.3557046979865772
2023-09-11T20:59:05.852Z,3.959731543624161
2023-09-11T21:03:45.338Z,2.563758389261745
2023-09-11T21:07:57.212Z,3.302013422818792
2023-09-11T21:11:16.597Z,2.959731543624161
2023-09-11T21:14:36.274Z,2.3087248322147653
2023-09-11T21:17:56.527Z,3.1946308724832213
2023-09-11T21:21:16.409Z,2.7114093959731544
2023-09-11T21:24:44.320Z,3.2348993288590604
2023-09-11T21:28:03.285Z,3.335570469798658
2023-09-11T21:31:23.174Z,2.4966442953020134
2023-09-11T21:34:43.155Z,3.1140939597315436
2023-09-11T21:38:03.235Z,2.838926174496644
2023-09-11T21:45:12.639Z,3.261744966442953
2023-09-11T21:53:05.500Z,2.348993288590604
2023-09-11T21:56:25.074Z,3.0
2023-09-11T21:59:45.179Z,1.6375838926174497
2023-09-11T22:03:05.499Z,2.7583892617449663
2023-09-11T22:06:46.026Z,2.422818791946309
2023-09-11T22:10:05.895Z,3.7449664429530203
2023-09-11T22:13:25.165Z,2.7315436241610738
2023-09-11T22:16:44.600Z,4.194630872483222
2023-09-11T22:20:05.755Z,3.9932885906040267
2023-09-11T22:23:40.961Z,3.3691275167785233
2023-09-11T22:30:19.174Z,3.208053691275168
2023-09-11T22:36:23.597Z,3.530201342281879
2023-09-11T22:39:43.162Z,3.2013422818791946
2023-09-11T22:43:03.454Z,4.76510067114094
2023-09-11T22:46:23.478Z,3.5033557046979866
2023-09-11T22:49:43.100Z,5.355704697986577
2023-09-11T22:53:03.179Z,3.4295302013422817
2023-09-11T22:56:23.072Z,4.6644295302013425
2023-09-11T22:59:42.558Z,5.476510067114094
2023-09-11T23:03:02.126Z,4.25503355704698
2023-09-11T23:06:22.247Z,4.76510067114094
2023-09-11T23:09:41.683Z,6.275167785234899
2023-09-11T23:13:01.381Z,5.281879194630872
2023-09-11T23:16:20.871Z,3.9798657718120807
2023-09-11T23:19:40.621Z,7.302013422818792
2023-09-11T23:23:00.719Z,11.120805369127517
2023-09-11T23:26:19.582Z,9.449664429530202
2023-09-11T23:29:39.054Z,8.671140939597315
2023-09-11T23:32:59.456Z,8.953020134228188
2023-09-11T23:38:33.059Z,6.597315436241611
2023-09-11T23:41:53.664Z,10.328859060402685
2023-09-11T23:45:13.078Z,9.543624161073826
2023-09-11T23:48:32.961Z,9.40268456375839
2023-09-11T23:51:53.010Z,10.899328859060402
2023-09-11T23:55:12.548Z,12.765100671140939
2023-09-11T23:58:32.381Z,11.026845637583893
